sensor_id;sensor_type;location;lat;lon;timestamp;temperature;humidity
40249;DHT22;25969;49.970;11.062;2023-04-03T04:06:48;1.50;99.90
40249;DHT22;25969;49.970;11.062;2023-04-03T04:16:49;1.40;99.90
40249;DHT22;25969;49.970;11.062;2023-04-03T04:26:56;1.20;99.90
40249;DHT22;25969;49.970;11.062;2023-04-03T04:36:57;0.90;99.90
40249;DHT22;25969;49.970;11.062;2023-04-03T04:46:59;0.90;99.90
40249;DHT22;25969;49.970;11.062;2023-04-03T04:57:00;0.90;99.90
40249;DHT22;25969;49.970;11.062;2023-04-03T05:07:03;1.00;99.90
40249;DHT22;25969;49.970;11.062;2023-04-03T05:17:06;1.00;99.90
40249;DHT22;25969;49.970;11.062;2023-04-03T05:27:11;1.10;99.90
40249;DHT22;25969;49.970;11.062;2023-04-03T05:37:15;1.20;99.90
40249;DHT22;25969;49.970;11.062;2023-04-03T05:47:18;1.30;99.90
40249;DHT22;25969;49.970;11.062;2023-04-03T05:57:19;1.40;99.90
40249;DHT22;25969;49.970;11.062;2023-04-03T06:07:22;1.60;99.90
40249;DHT22;25969;49.970;11.062;2023-04-03T06:17:24;1.70;99.90
40249;DHT22;25969;49.970;11.062;2023-04-03T06:27:25;1.90;99.90
40249;DHT22;25969;49.970;11.062;2023-04-03T06:37:25;2.10;99.90
40249;DHT22;25969;49.970;11.062;2023-04-03T06:47:26;2.20;99.90
40249;DHT22;25969;49.970;11.062;2023-04-03T06:57:27;2.50;99.90
40249;DHT22;25969;49.970;11.062;2023-04-03T07:07:27;2.20;99.90
40249;DHT22;25969;49.970;11.062;2023-04-03T07:17:28;2.30;99.90
40249;DHT22;25969;49.970;11.062;2023-04-03T07:27:29;2.40;99.90
40249;DHT22;25969;49.970;11.062;2023-04-03T07:37:30;2.30;99.90
40249;DHT22;25969;49.970;11.062;2023-04-03T07:47:30;2.50;99.90
40249;DHT22;25969;49.970;11.062;2023-04-03T07:57:31;2.70;99.90
40249;DHT22;25969;49.970;11.062;2023-04-03T08:07:32;3.00;99.90
40249;DHT22;25969;49.970;11.062;2023-04-03T08:17:33;3.30;99.90
40249;DHT22;25969;49.970;11.062;2023-04-03T08:27:34;3.20;98.20
40249;DHT22;25969;49.970;11.062;2023-04-03T08:37:35;3.80;95.50
40249;DHT22;25969;49.970;11.062;2023-04-03T08:47:45;4.40;93.80
40249;DHT22;25969;49.970;11.062;2023-04-03T08:57:48;7.70;88.80
40249;DHT22;25969;49.970;11.062;2023-04-03T09:18:30;12.00;60.50
40249;DHT22;25969;49.970;11.062;2023-04-03T09:28:37;13.00;53.10
40249;DHT22;25969;49.970;11.062;2023-04-03T09:38:38;14.90;46.20
40249;DHT22;25969;49.970;11.062;2023-04-03T09:48:50;19.30;40.10
40249;DHT22;25969;49.970;11.062;2023-04-03T10:09:09;20.10;35.20
40249;DHT22;25969;49.970;11.062;2023-04-03T10:29:42;19.20;33.70
40249;DHT22;25969;49.970;11.062;2023-04-03T10:39:57;16.00;35.00
40249;DHT22;25969;49.970;11.062;2023-04-03T10:50:00;17.30;35.90
40249;DHT22;25969;49.970;11.062;2023-04-03T11:00:04;15.80;38.00
40249;DHT22;25969;49.970;11.062;2023-04-03T11:10:09;18.20;35.00
40249;DHT22;25969;49.970;11.062;2023-04-03T11:20:21;18.20;35.60
40249;DHT22;25969;49.970;11.062;2023-04-03T11:30:41;20.00;32.30
40249;DHT22;25969;49.970;11.062;2023-04-03T11:40:44;20.80;30.70
40249;DHT22;25969;49.970;11.062;2023-04-03T11:50:47;21.00;30.10
40249;DHT22;25969;49.970;11.062;2023-04-03T12:00:51;20.50;29.60
40249;DHT22;25969;49.970;11.062;2023-04-03T12:21:13;19.60;30.40
40249;DHT22;25969;49.970;11.062;2023-04-03T12:31:14;18.20;30.80
40249;DHT22;25969;49.970;11.062;2023-04-03T12:41:32;20.10;30.90
40249;DHT22;25969;49.970;11.062;2023-04-03T12:51:41;20.20;28.80
40249;DHT22;25969;49.970;11.062;2023-04-03T13:07:29;19.20;30.80
40249;DHT22;25969;49.970;11.062;2023-04-03T13:17:38;18.70;30.70
40249;DHT22;25969;49.970;11.062;2023-04-03T13:27:39;18.90;31.00
40249;DHT22;25969;49.970;11.062;2023-04-03T13:37:56;18.50;30.50
40249;DHT22;25969;49.970;11.062;2023-04-03T13:48:19;18.60;30.50
40249;DHT22;25969;49.970;11.062;2023-04-03T13:58:28;18.70;30.30
40249;DHT22;25969;49.970;11.062;2023-04-03T14:08:29;15.70;36.40
40249;DHT22;25969;49.970;11.062;2023-04-03T14:18:30;17.20;32.90
40249;DHT22;25969;49.970;11.062;2023-04-03T14:28:31;13.00;38.00
40249;DHT22;25969;49.970;11.062;2023-04-03T14:38:32;12.90;39.70
40249;DHT22;25969;49.970;11.062;2023-04-03T14:48:33;14.50;37.50
40249;DHT22;25969;49.970;11.062;2023-04-03T14:58:34;12.30;39.40
40249;DHT22;25969;49.970;11.062;2023-04-03T15:08:37;12.70;40.40
40249;DHT22;25969;49.970;11.062;2023-04-03T15:18:38;10.10;42.30
40249;DHT22;25969;49.970;11.062;2023-04-03T15:28:41;9.00;46.70
40249;DHT22;25969;49.970;11.062;2023-04-03T15:38:42;10.30;44.50
40249;DHT22;25969;49.970;11.062;2023-04-03T15:48:43;8.20;46.90
40249;DHT22;25969;49.970;11.062;2023-04-03T15:58:45;10.10;45.90
40249;DHT22;25969;49.970;11.062;2023-04-03T16:08:49;8.70;48.90
40249;DHT22;25969;49.970;11.062;2023-04-03T16:18:50;9.50;45.70
40249;DHT22;25969;49.970;11.062;2023-04-03T16:28:51;7.70;49.50
40249;DHT22;25969;49.970;11.062;2023-04-03T16:38:52;8.40;48.30
40249;DHT22;25969;49.970;11.062;2023-04-03T16:48:53;7.00;49.80
40249;DHT22;25969;49.970;11.062;2023-04-03T16:58:54;5.50;54.20
40249;DHT22;25969;49.970;11.062;2023-04-03T17:08:54;5.60;56.40
40249;DHT22;25969;49.970;11.062;2023-04-03T17:19:02;4.90;55.00
40249;DHT22;25969;49.970;11.062;2023-04-03T17:29:04;4.30;57.10
40249;DHT22;25969;49.970;11.062;2023-04-03T17:39:05;4.20;58.40
40249;DHT22;25969;49.970;11.062;2023-04-03T17:49:05;4.00;58.50
40249;DHT22;25969;49.970;11.062;2023-04-03T17:59:06;3.80;58.90
40249;DHT22;25969;49.970;11.062;2023-04-03T18:09:16;3.40;62.40
40249;DHT22;25969;49.970;11.062;2023-04-03T18:19:18;3.50;64.30
40249;DHT22;25969;49.970;11.062;2023-04-03T18:29:19;3.30;61.50
40249;DHT22;25969;49.970;11.062;2023-04-03T18:39:20;3.20;60.90
40249;DHT22;25969;49.970;11.062;2023-04-03T18:49:21;3.30;61.20
40249;DHT22;25969;49.970;11.062;2023-04-03T18:59:21;3.10;61.90
40249;DHT22;25969;49.970;11.062;2023-04-03T19:09:24;2.90;62.10
40249;DHT22;25969;49.970;11.062;2023-04-03T19:19:25;2.80;61.90
40249;DHT22;25969;49.970;11.062;2023-04-03T19:29:25;2.80;60.40
40249;DHT22;25969;49.970;11.062;2023-04-03T19:39:26;2.70;60.80
40249;DHT22;25969;49.970;11.062;2023-04-03T19:49:30;2.50;64.50
40249;DHT22;25969;49.970;11.062;2023-04-03T19:59:31;2.60;65.10
40249;DHT22;25969;49.970;11.062;2023-04-03T20:09:32;2.50;65.30
40249;DHT22;25969;49.970;11.062;2023-04-03T20:19:33;2.60;62.60
40249;DHT22;25969;49.970;11.062;2023-04-03T20:29:35;2.40;64.30
40249;DHT22;25969;49.970;11.062;2023-04-03T20:39:36;2.40;63.30
40249;DHT22;25969;49.970;11.062;2023-04-03T20:49:37;2.30;63.60
40249;DHT22;25969;49.970;11.062;2023-04-03T20:59:37;2.20;64.30
40249;DHT22;25969;49.970;11.062;2023-04-03T21:20:18;2.10;63.50
40249;DHT22;25969;49.970;11.062;2023-04-03T21:30:19;1.90;65.10
40249;DHT22;25969;49.970;11.062;2023-04-03T21:40:19;1.90;64.60
40249;DHT22;25969;49.970;11.062;2023-04-03T21:50:20;2.10;65.10
